Time;durP1;ratioP1;P1;durP2;ratioP2;P2;SDS_P1;SDS_P2;PMS_P1;PMS_P2;Temp;Humidity;BMP_temperature;BMP_pressure;BME280_temperature;BME280_humidity;BME280_pressure;Samples;Min_cycle;Max_cycle;Signal;HPM_P1;HPM_P2
2022/12/04 00:02:19;;;;;;;28.33;15.20;;;;;;;41.51;36.54;100786.41;6277047;22;20393;-70
2022/12/04 00:04:45;;;;;;;19.60;14.73;;;;;;;41.52;37.10;100782.56;6248951;22;20735;-71
2022/12/04 00:07:11;;;;;;;22.67;15.37;;;;;;;41.40;36.98;100782.47;6223902;22;20381;-70
2022/12/04 00:09:36;;;;;;;28.97;14.67;;;;;;;41.57;36.42;100777.69;6249280;22;20389;-72
2022/12/04 00:12:03;;;;;;;33.20;17.67;;;;;;;41.16;37.64;100773.00;6249184;22;20382;-72
2022/12/04 00:14:28;;;;;;;30.47;16.17;;;;;;;41.45;36.86;100764.03;6247686;22;20765;-70
2022/12/04 00:16:54;;;;;;;30.57;16.30;;;;;;;41.44;36.80;100769.81;6247038;22;20508;-70
2022/12/04 00:19:20;;;;;;;32.73;19.70;;;;;;;41.29;37.42;100771.16;6248752;22;20870;-69
2022/12/04 00:21:49;;;;;;;28.73;16.03;;;;;;;41.69;36.72;100768.00;6275833;22;20369;-70
2022/12/04 00:24:15;;;;;;;26.00;15.40;;;;;;;41.72;36.94;100762.66;6247906;22;20389;-70
2022/12/04 00:26:41;;;;;;;22.07;15.27;;;;;;;41.53;37.02;100760.44;6248122;22;20425;-71
2022/12/04 00:29:07;;;;;;;29.83;16.87;;;;;;;41.60;36.72;100763.41;6248273;22;20488;-70
2022/12/04 00:31:33;;;;;;;27.27;15.03;;;;;;;41.66;36.91;100764.00;6248879;22;20389;-71
2022/12/04 00:33:59;;;;;;;28.53;17.13;;;;;;;41.45;37.11;100758.59;6275647;22;20370;-71
2022/12/04 00:36:27;;;;;;;26.30;16.73;;;;;;;41.17;37.44;100750.13;6248374;22;20460;-71
2022/12/04 00:38:53;;;;;;;31.47;17.53;;;;;;;41.50;36.91;100750.22;6275846;22;20358;-70
2022/12/04 00:41:23;;;;;;;27.50;15.63;;;;;;;41.20;37.80;100749.47;6248183;22;20400;-71
2022/12/04 00:43:49;;;;;;;23.40;15.10;;;;;;;41.28;37.95;100743.16;6248415;22;20412;-71
2022/12/04 00:46:16;;;;;;;26.10;15.97;;;;;;;40.92;38.47;100742.94;6248254;22;20487;-71
2022/12/04 00:48:45;;;;;;;26.90;15.60;;;;;;;40.87;38.80;100737.63;6248457;22;20455;-72
2022/12/04 00:51:17;;;;;;;37.87;20.63;;;;;;;40.66;38.63;100738.41;6248418;22;20392;-71
2022/12/04 00:53:44;;;;;;;26.90;15.67;;;;;;;40.94;37.84;100740.66;6248317;22;20386;-70
2022/12/04 00:56:13;;;;;;;20.67;18.17;;;;;;;40.60;38.42;100731.56;6275453;22;20469;-70
2022/12/04 00:58:40;;;;;;;28.40;15.17;;;;;;;40.33;39.33;100732.78;6248308;22;20875;-70
2022/12/04 01:01:09;;;;;;;25.53;16.97;;;;;;;40.77;38.81;100731.47;6248416;22;20710;-70
2022/12/04 01:03:35;;;;;;;23.30;14.93;;;;;;;40.41;39.11;100723.00;6273827;22;20358;-72
2022/12/04 01:06:02;;;;;;;34.57;16.57;;;;;;;41.13;38.22;100726.59;6245960;22;20957;-72
2022/12/04 01:08:28;;;;;;;21.43;18.27;;;;;;;41.03;38.32;100722.38;6246400;22;20387;-72
2022/12/04 01:10:54;;;;;;;31.70;16.87;;;;;;;40.50;39.01;100721.84;6246700;22;20386;-72
2022/12/04 01:13:22;;;;;;;39.57;17.60;;;;;;;40.74;38.79;100723.16;6246854;22;20393;-69
2022/12/04 01:15:48;;;;;;;25.50;16.57;;;;;;;41.11;38.07;100712.53;6245843;22;20458;-73
2022/12/04 01:18:15;;;;;;;30.87;18.70;;;;;;;41.17;37.94;100709.28;6245922;22;20465;-72
2022/12/04 01:20:50;;;;;;;24.27;16.97;;;;;;;41.39;37.54;100715.56;6273443;22;20361;-73
2022/12/04 01:23:17;;;;;;;27.33;18.53;;;;;;;40.84;38.37;100711.91;6246251;22;20388;-73
2022/12/04 01:25:51;;;;;;;34.73;17.20;;;;;;;41.00;37.67;100696.59;6273393;22;20417;-73
2022/12/04 01:28:17;;;;;;;29.83;17.37;;;;;;;40.96;38.10;100700.34;6246997;22;20385;-72
2022/12/04 01:30:43;;;;;;;26.20;18.03;;;;;;;40.90;38.33;100691.56;6248435;22;20392;-69
2022/12/04 01:33:09;;;;;;;23.40;16.47;;;;;;;40.70;38.85;100690.41;6248391;22;20389;-70
2022/12/04 01:35:35;;;;;;;30.60;16.80;;;;;;;40.67;39.03;100688.34;6248629;22;20489;-70
2022/12/04 01:38:00;;;;;;;30.03;18.57;;;;;;;40.56;38.84;100687.13;6250656;22;20385;-70
2022/12/04 01:40:26;;;;;;;29.30;17.77;;;;;;;40.16;39.89;100679.28;6252175;22;20700;-70
2022/12/04 01:42:52;;;;;;;24.37;16.00;;;;;;;40.17;39.37;100674.66;6251995;22;20417;-70
2022/12/04 01:45:27;;;;;;;28.43;19.03;;;;;;;40.58;39.04;100689.50;6251875;22;20780;-70
2022/12/04 01:47:57;;;;;;;22.83;16.67;;;;;;;40.70;38.17;100690.41;6251912;22;20892;-70
2022/12/04 01:50:23;;;;;;;25.70;16.50;;;;;;;40.18;39.00;100674.31;6251986;22;20390;-70
2022/12/04 01:52:50;;;;;;;23.10;16.77;;;;;;;40.43;39.04;100690.84;6252080;22;20738;-71
2022/12/04 01:55:17;;;;;;;35.10;16.40;;;;;;;40.46;38.99;100687.47;6251738;22;20429;-71
2022/12/04 01:57:45;;;;;;;29.93;19.20;;;;;;;40.54;39.29;100682.00;6251936;22;20389;-70
2022/12/04 02:00:14;;;;;;;26.43;18.97;;;;;;;40.49;38.77;100687.63;6252029;22;20385;-70
2022/12/04 02:02:44;;;;;;;25.47;16.97;;;;;;;40.79;38.51;100682.19;6251854;22;20437;-70
2022/12/04 02:05:13;;;;;;;27.40;17.17;;;;;;;40.70;38.75;100681.44;6279470;22;20912;-70
2022/12/04 02:07:42;;;;;;;28.40;16.30;;;;;;;40.43;38.81;100688.13;6251861;22;20470;-69
2022/12/04 02:10:10;;;;;;;28.77;16.13;;;;;;;40.22;39.73;100683.44;6279502;22;20365;-70
2022/12/04 02:12:49;;;;;;;19.60;14.40;;;;;;;40.32;38.71;100689.59;6251858;22;20417;-70
2022/12/04 02:15:20;;;;;;;26.70;16.83;;;;;;;40.19;38.89;100680.56;6251911;22;20381;-70
2022/12/04 02:18:13;;;;;;;28.57;17.17;;;;;;;39.87;39.57;100671.06;6252081;22;20437;-70
2022/12/04 02:21:21;;;;;;;30.93;17.20;;;;;;;40.32;38.87;100678.72;6251799;22;20381;-71
2022/12/04 02:23:58;;;;;;;22.47;16.83;;;;;;;39.87;40.02;100674.56;6279589;22;20364;-72
2022/12/04 02:26:54;;;;;;;27.77;17.13;;;;;;;40.61;39.39;100678.78;6251604;22;20420;-71
2022/12/04 02:29:39;;;;;;;39.97;20.50;;;;;;;40.45;39.21;100681.22;6226459;22;20535;-69
2022/12/04 02:32:23;;;;;;;28.33;16.90;;;;;;;40.29;39.13;100678.28;6279129;22;20354;-68
2022/12/04 02:35:04;;;;;;;25.13;15.30;;;;;;;40.57;38.29;100668.88;6251771;22;20397;-69
2022/12/04 02:37:42;;;;;;;21.53;16.17;;;;;;;40.61;38.43;100667.91;6279259;22;20364;-70
2022/12/04 02:40:13;;;;;;;28.33;15.70;;;;;;;40.84;37.90;100662.94;6251682;22;20409;-71
2022/12/04 02:43:02;;;;;;;25.93;17.23;;;;;;;40.50;38.69;100672.13;6251612;22;20804;-72
2022/12/04 02:45:38;;;;;;;27.80;16.77;;;;;;;40.17;39.31;100664.59;6251480;22;20421;-72
2022/12/04 02:48:07;;;;;;;30.13;17.03;;;;;;;40.45;38.84;100669.56;6251685;22;20434;-70
2022/12/04 02:50:39;;;;;;;30.80;16.10;;;;;;;40.33;38.99;100670.28;6250280;22;20365;-69
2022/12/04 02:53:17;;;;;;;30.13;16.20;;;;;;;40.54;39.17;100665.69;6250115;22;20381;-69
2022/12/04 02:55:56;;;;;;;23.80;17.20;;;;;;;40.63;38.63;100660.19;6250571;22;20864;-69
2022/12/04 02:58:48;;;;;;;20.77;15.10;;;;;;;40.72;38.60;100665.59;6250042;22;20381;-71
2022/12/04 03:01:20;;;;;;;24.70;16.57;;;;;;;40.97;38.39;100666.56;6250186;22;20488;-71
2022/12/04 03:03:55;;;;;;;25.10;16.90;;;;;;;40.92;37.95;100662.13;6249896;22;20431;-70
2022/12/04 03:06:24;;;;;;;23.07;15.70;;;;;;;40.67;38.47;100672.00;6249522;22;20500;-70
2022/12/04 03:08:57;;;;;;;22.40;16.13;;;;;;;40.92;38.23;100670.28;6224788;22;20846;-70
2022/12/04 03:11:27;;;;;;;22.30;14.53;;;;;;;40.27;39.07;100671.59;6249977;22;20386;-70
2022/12/04 03:13:59;;;;;;;27.43;15.90;;;;;;;40.22;39.26;100672.56;6249740;22;20381;-70
2022/12/04 03:16:31;;;;;;;31.93;17.03;;;;;;;40.17;39.17;100675.44;6249549;22;20810;-71
2022/12/04 03:19:04;;;;;;;30.77;16.67;;;;;;;40.56;38.43;100676.25;6249780;22;20400;-69
2022/12/04 03:21:37;;;;;;;29.27;17.80;;;;;;;40.27;38.65;100674.31;6224637;22;20377;-70
2022/12/04 03:24:16;;;;;;;23.77;16.33;;;;;;;40.38;39.03;100697.25;6249655;22;20388;-72
2022/12/04 03:26:56;;;;;;;28.27;13.93;;;;;;;40.49;38.79;100687.63;6249679;22;20501;-70
2022/12/04 03:29:40;;;;;;;28.70;15.17;;;;;;;40.72;38.63;100685.44;6249697;22;20378;-70
2022/12/04 03:32:21;;;;;;;19.93;14.60;;;;;;;40.68;38.54;100695.34;6225681;22;20385;-69
2022/12/04 03:34:54;;;;;;;37.93;18.30;;;;;;;40.04;39.22;100698.19;6249797;22;20392;-70
2022/12/04 03:37:35;;;;;;;25.50;15.27;;;;;;;40.29;38.93;100682.91;6249471;22;20414;-70
2022/12/04 03:40:25;;;;;;;20.40;15.63;;;;;;;40.44;38.82;100690.50;6249615;22;20842;-70
2022/12/04 03:43:01;;;;;;;33.03;15.73;;;;;;;40.57;38.55;100696.06;6249662;22;20412;-70
2022/12/04 03:45:53;;;;;;;27.97;14.90;;;;;;;40.95;37.61;100701.47;6277044;22;20405;-70
2022/12/04 03:48:34;;;;;;;25.90;15.13;;;;;;;40.57;38.68;100705.00;6224351;22;20466;-70
2022/12/04 03:51:11;;;;;;;28.20;17.13;;;;;;;40.86;37.50;100696.03;6249517;22;20389;-72
2022/12/04 03:53:50;;;;;;;28.97;16.03;;;;;;;41.13;37.16;100708.38;6249516;22;20391;-70
2022/12/04 03:56:24;;;;;;;26.20;14.90;;;;;;;40.79;38.17;100714.81;6225149;22;20441;-70
2022/12/04 03:58:58;;;;;;;20.57;13.77;;;;;;;40.47;38.37;100706.19;6276893;22;20700;-70
2022/12/04 04:01:31;;;;;;;33.47;16.00;;;;;;;41.07;37.72;100701.53;6276395;22;20814;-71
2022/12/04 04:03:59;;;;;;;24.73;13.63;;;;;;;40.86;37.54;100715.09;6249280;22;20741;-72
2022/12/04 04:06:31;;;;;;;17.50;14.10;;;;;;;40.91;37.54;100714.13;6249253;22;21007;-69
2022/12/04 04:09:03;;;;;;;18.63;13.13;;;;;;;40.98;37.61;100719.84;6248948;22;20479;-70
2022/12/04 04:11:34;;;;;;;24.00;16.77;;;;;;;40.79;38.31;100731.94;6249376;22;20444;-70
2022/12/04 04:25:23;;;;;;;26.37;13.47;;;;;;;40.52;38.68;100733.22;6276191;22;20424;-70
2022/12/04 04:27:55;;;;;;;26.30;17.47;;;;;;;40.67;38.07;100731.84;6249257;22;20381;-70
2022/12/04 04:30:21;;;;;;;23.87;13.67;;;;;;;40.82;38.18;100738.63;6249083;22;20386;-70
2022/12/04 04:32:56;;;;;;;22.43;15.60;;;;;;;41.12;37.23;100733.97;6223803;22;20406;-71
2022/12/04 04:35:54;;;;;;;21.07;14.23;;;;;;;41.01;37.84;100735.53;6248948;22;20385;-70
2022/12/04 04:38:48;;;;;;;24.83;16.30;;;;;;;41.02;37.93;100750.72;6249048;22;20393;-70
2022/12/04 04:41:26;;;;;;;26.67;15.83;;;;;;;41.06;37.57;100746.19;6225192;22;20838;-72
2022/12/04 04:44:44;;;;;;;23.67;15.10;;;;;;;40.95;37.45;100748.53;6276775;22;20358;-72
2022/12/04 04:47:27;;;;;;;25.20;17.87;;;;;;;41.32;36.79;100749.56;6199996;22;20768;-72
2022/12/04 04:49:56;;;;;;;20.80;13.17;;;;;;;40.92;37.61;100754.59;6248956;22;20401;-72
2022/12/04 04:52:23;;;;;;;22.77;14.57;;;;;;;40.71;37.82;100749.09;6276545;22;20350;-71
2022/12/04 04:54:49;;;;;;;15.40;13.90;;;;;;;40.77;38.19;100755.16;6248750;22;20426;-71
2022/12/04 04:57:27;;;;;;;37.43;15.53;;;;;;;40.97;37.65;100759.06;6248841;22;20413;-72
2022/12/04 04:59:53;;;;;;;21.30;13.63;;;;;;;41.20;37.23;100756.84;6248888;22;20389;-70
2022/12/04 05:02:19;;;;;;;22.33;14.07;;;;;;;41.26;37.32;100759.03;6248736;22;20944;-70
2022/12/04 05:04:45;;;;;;;20.93;13.37;;;;;;;41.39;36.57;100756.41;6276165;22;20358;-69
2022/12/04 05:07:11;;;;;;;21.77;15.00;;;;;;;41.29;36.71;100761.06;6248730;22;20397;-71
2022/12/04 05:09:37;;;;;;;20.10;14.10;;;;;;;41.48;36.82;100759.81;6248811;22;20438;-72
2022/12/04 05:12:03;;;;;;;32.80;15.20;;;;;;;41.50;36.53;100758.38;6248702;22;20723;-70
2022/12/04 05:14:29;;;;;;;20.27;13.17;;;;;;;41.51;36.86;100759.19;6248845;22;20373;-70
2022/12/04 05:16:55;;;;;;;23.90;13.80;;;;;;;41.44;36.58;100762.44;6248688;22;20440;-70
2022/12/04 05:22:05;;;;;;;24.80;13.17;;;;;;;41.41;36.39;100770.47;6275714;22;20658;-72
2022/12/04 05:24:31;;;;;;;19.13;13.30;;;;;;;41.27;36.65;100763.34;6248736;22;20381;-71
2022/12/04 05:26:57;;;;;;;19.10;12.60;;;;;;;41.43;36.59;100771.72;6248444;22;20487;-71
2022/12/04 05:29:23;;;;;;;21.43;12.83;;;;;;;41.41;36.64;100775.91;6223341;22;20390;-70
2022/12/04 05:31:49;;;;;;;26.30;15.20;;;;;;;41.49;36.24;100769.59;6276165;22;20431;-70
2022/12/04 05:34:15;;;;;;;21.73;13.70;;;;;;;41.21;36.67;100772.03;6248678;22;20377;-71
2022/12/04 05:36:41;;;;;;;19.83;13.60;;;;;;;40.84;37.27;100771.75;6248675;22;20888;-71
2022/12/04 05:39:07;;;;;;;27.80;12.47;;;;;;;41.20;37.46;100784.06;6248875;22;20386;-72
2022/12/04 05:41:33;;;;;;;21.20;13.60;;;;;;;41.33;36.91;100777.56;6248602;22;20166;-72
2022/12/04 05:43:58;;;;;;;19.40;13.07;;;;;;;40.97;37.43;100795.22;6248879;22;20369;-72
2022/12/04 05:46:25;;;;;;;31.40;14.87;;;;;;;40.97;37.62;100784.34;6248606;22;20494;-72
2022/12/04 05:48:51;;;;;;;26.43;14.10;;;;;;;41.13;37.38;100787.31;6248519;22;20765;-70
2022/12/04 05:51:17;;;;;;;20.40;12.30;;;;;;;41.21;36.95;100791.88;6248626;22;20866;-70
2022/12/04 05:53:43;;;;;;;28.23;17.90;;;;;;;40.14;39.31;100794.84;6248585;22;20378;-70
2022/12/04 05:56:09;;;;;;;35.70;20.83;;;;;;;39.92;39.73;100793.13;6275770;22;20472;-70
2022/12/04 05:58:37;;;;;;;30.03;20.93;;;;;;;40.38;38.66;100795.09;6275828;22;20357;-71
2022/12/04 06:01:23;;;;;;;31.67;21.47;;;;;;;40.37;39.18;100790.00;6248280;22;20389;-70
2022/12/04 06:03:49;;;;;;;28.63;23.53;;;;;;;40.90;38.18;100796.84;6248446;22;20378;-72
2022/12/04 06:06:18;;;;;;;26.70;21.30;;;;;;;40.58;38.59;100804.50;6248349;22;20417;-70
2022/12/04 06:08:46;;;;;;;41.07;23.43;;;;;;;40.70;38.43;100804.63;6248769;22;20765;-71
2022/12/04 06:11:14;;;;;;;38.17;24.87;;;;;;;40.53;38.33;100804.69;6248730;22;20385;-70
2022/12/04 06:13:42;;;;;;;34.27;26.77;;;;;;;40.86;38.25;100809.50;6276264;22;20408;-70
2022/12/04 06:16:16;;;;;;;34.93;22.17;;;;;;;40.93;37.68;100813.31;6249050;22;20956;-70
2022/12/04 06:18:43;;;;;;;34.37;22.30;;;;;;;40.29;39.04;100813.38;6276070;22;20384;-70
2022/12/04 06:21:09;;;;;;;32.90;23.13;;;;;;;40.71;38.26;100810.84;6275909;22;20350;-70
2022/12/04 06:23:36;;;;;;;33.50;24.20;;;;;;;40.87;37.96;100811.09;6223182;22;20377;-70
2022/12/04 06:26:07;;;;;;;35.83;25.50;;;;;;;40.67;38.25;100816.13;6250240;22;20439;-72
2022/12/04 06:28:33;;;;;;;33.00;25.20;;;;;;;40.93;37.74;100815.25;6250227;22;20856;-71
2022/12/04 06:31:04;;;;;;;35.17;22.83;;;;;;;41.11;37.63;100827.63;6250427;22;20373;-71
2022/12/04 06:33:31;;;;;;;31.83;21.73;;;;;;;41.23;37.69;100827.72;6249667;22;20687;-71
2022/12/04 06:35:59;;;;;;;34.73;21.30;;;;;;;41.14;37.49;100831.63;6250164;22;20372;-72
2022/12/04 06:38:25;;;;;;;39.90;18.57;;;;;;;40.88;37.71;100839.88;6249939;22;21292;-70
2022/12/04 06:40:51;;;;;;;22.47;14.60;;;;;;;41.19;37.02;100834.97;6277739;22;20858;-70
2022/12/04 06:43:17;;;;;;;27.20;14.93;;;;;;;41.31;37.15;100843.22;6250302;22;20476;-70
2022/12/04 06:45:43;;;;;;;33.27;15.70;;;;;;;41.28;37.13;100852.03;6250032;22;20417;-70
2022/12/04 06:48:09;;;;;;;27.10;13.83;;;;;;;41.63;36.20;100856.47;6224737;22;20388;-70
2022/12/04 06:50:35;;;;;;;32.70;17.03;;;;;;;41.69;36.54;100866.03;6250383;22;20377;-70
2022/12/04 06:53:01;;;;;;;28.70;14.70;;;;;;;41.55;36.23;100869.81;6249650;22;20377;-70
2022/12/04 06:55:26;;;;;;;26.00;13.97;;;;;;;41.32;36.34;100863.06;6249707;22;20380;-70
2022/12/04 06:57:52;;;;;;;34.93;14.60;;;;;;;41.39;36.70;100865.28;6250060;22;20162;-70
2022/12/04 07:00:18;;;;;;;28.27;15.67;;;;;;;41.59;36.31;100869.94;6249839;22;20381;-71
2022/12/04 07:02:44;;;;;;;29.30;14.33;;;;;;;41.53;36.57;100874.00;6249843;22;20468;-70
2022/12/04 07:05:10;;;;;;;32.97;15.17;;;;;;;41.75;36.51;100883.81;6249052;22;20437;-70
2022/12/04 07:07:36;;;;;;;35.33;16.50;;;;;;;41.47;36.56;100870.66;6223378;22;21024;-70
2022/12/04 07:10:03;;;;;;;22.73;15.60;;;;;;;41.52;36.34;100886.03;6248175;22;20409;-70
2022/12/04 07:12:30;;;;;;;22.23;13.67;;;;;;;41.65;36.23;100887.69;6222906;22;20380;-70
2022/12/04 07:14:56;;;;;;;16.77;14.37;;;;;;;41.63;36.19;100887.22;6248395;22;20405;-68
2022/12/04 07:17:22;;;;;;;18.97;14.37;;;;;;;41.56;36.15;100892.41;6249024;22;20836;-69
2022/12/04 07:19:48;;;;;;;21.90;13.57;;;;;;;41.77;36.25;100904.13;6249382;22;20409;-69
2022/12/04 07:22:14;;;;;;;28.70;16.37;;;;;;;41.80;35.88;100898.00;6249078;22;20373;-70
2022/12/04 07:24:40;;;;;;;19.93;14.03;;;;;;;41.81;35.87;100910.53;6249240;22;20842;-71
2022/12/04 07:27:06;;;;;;;45.37;18.30;;;;;;;41.56;36.32;100904.09;6249573;22;20381;-70
2022/12/04 07:29:32;;;;;;;22.93;14.43;;;;;;;41.20;36.92;100912.75;6276736;22;20809;-70
2022/12/04 07:31:58;;;;;;;22.83;15.03;;;;;;;41.51;36.69;100914.38;6249125;22;20434;-70
2022/12/04 07:34:24;;;;;;;23.37;15.23;;;;;;;41.78;36.31;100913.88;6248928;22;20845;-72
2022/12/04 07:36:50;;;;;;;23.50;16.87;;;;;;;41.77;36.17;100917.75;6249153;22;20378;-70
2022/12/04 07:39:16;;;;;;;25.50;14.60;;;;;;;41.32;36.19;100925.66;6249280;22;20877;-70
2022/12/04 07:41:42;;;;;;;17.40;12.90;;;;;;;41.61;36.01;100922.16;6247295;22;20704;-71
2022/12/04 07:44:08;;;;;;;20.00;13.27;;;;;;;41.31;36.98;100919.44;6249375;22;20850;-70
2022/12/04 07:46:35;;;;;;;19.57;13.50;;;;;;;41.48;36.91;100924.00;6276573;22;20729;-70
2022/12/04 07:49:00;;;;;;;25.50;14.83;;;;;;;41.56;36.56;100933.25;6249619;22;20865;-69
2022/12/04 07:51:29;;;;;;;27.30;14.70;;;;;;;41.49;36.67;100927.50;6249675;22;20381;-70
2022/12/04 07:53:57;;;;;;;30.90;16.67;;;;;;;41.77;36.71;100931.38;6248982;22;20393;-70
2022/12/04 07:56:23;;;;;;;24.37;17.77;;;;;;;41.66;36.61;100935.56;6249366;22;20412;-69
2022/12/04 07:58:49;;;;;;;20.37;14.60;;;;;;;41.73;36.46;100924.94;6276901;22;20373;-69
2022/12/04 08:01:24;;;;;;;21.60;15.80;;;;;;;41.91;36.26;100938.47;6249313;22;20408;-76
2022/12/04 08:03:52;;;;;;;23.57;15.67;;;;;;;41.89;35.89;100938.81;6249282;22;20892;-69
2022/12/04 08:06:20;;;;;;;27.43;14.73;;;;;;;41.85;36.23;100944.13;6249460;22;20425;-70
2022/12/04 08:08:47;;;;;;;24.77;15.10;;;;;;;41.64;36.45;100937.84;6248727;22;20381;-70
2022/12/04 08:11:15;;;;;;;23.30;15.63;;;;;;;42.14;35.80;100943.25;6276834;22;20751;-70
2022/12/04 08:13:41;;;;;;;22.20;15.03;;;;;;;41.75;35.60;100949.97;6249481;22;20381;-70
2022/12/04 08:16:10;;;;;;;28.30;15.20;;;;;;;41.45;36.21;100951.91;6248919;22;20431;-71
2022/12/04 08:18:36;;;;;;;20.97;13.40;;;;;;;41.70;36.28;100946.63;6276886;22;20354;-70
2022/12/04 08:21:08;;;;;;;19.47;13.80;;;;;;;41.68;35.80;100946.13;6224098;22;20373;-70
2022/12/04 08:23:35;;;;;;;25.53;15.93;;;;;;;42.01;35.26;100949.00;6248508;22;20377;-70
2022/12/04 08:26:02;;;;;;;16.80;14.00;;;;;;;42.18;35.38;100946.16;6249133;22;20425;-70
2022/12/04 08:28:28;;;;;;;24.80;14.30;;;;;;;41.99;35.77;100951.22;6249157;22;20378;-72
2022/12/04 08:30:54;;;;;;;27.77;14.20;;;;;;;42.07;35.70;100951.19;6223876;22;20378;-70
2022/12/04 08:33:20;;;;;;;21.80;13.90;;;;;;;42.22;35.44;100957.97;6249303;22;20420;-70
2022/12/04 08:35:46;;;;;;;18.57;13.40;;;;;;;42.31;35.22;100947.78;6249106;22;20869;-70
2022/12/04 08:38:12;;;;;;;24.87;16.33;;;;;;;41.98;36.05;100953.16;6220506;22;20412;-70
2022/12/04 08:40:38;;;;;;;30.73;15.77;;;;;;;42.40;34.92;100959.41;6275945;22;20354;-70
2022/12/04 08:43:04;;;;;;;24.63;13.97;;;;;;;41.97;35.24;100954.28;6276003;22;20390;-71
2022/12/04 08:45:30;;;;;;;21.17;12.23;;;;;;;41.50;36.66;100942.75;6248481;22;20428;-69
2022/12/04 08:47:56;;;;;;;21.10;15.23;;;;;;;42.03;35.55;100954.91;6248145;22;20627;-70
2022/12/04 08:50:22;;;;;;;27.17;14.50;;;;;;;42.28;35.00;100943.00;6248674;22;20381;-70
2022/12/04 08:52:48;;;;;;;20.67;13.57;;;;;;;42.20;35.24;100946.63;6247971;22;20408;-71
2022/12/04 08:55:14;;;;;;;24.50;15.50;;;;;;;42.39;35.01;100937.94;6248586;22;20165;-70
2022/12/04 08:57:40;;;;;;;21.83;14.23;;;;;;;41.99;35.42;100941.16;6248052;22;20409;-70
2022/12/04 09:00:06;;;;;;;18.80;13.30;;;;;;;42.37;34.85;100943.72;6248384;22;20373;-71
2022/12/04 09:02:32;;;;;;;19.63;14.07;;;;;;;42.42;35.35;100945.47;6275881;22;20859;-70
2022/12/04 09:04:58;;;;;;;21.07;13.70;;;;;;;42.22;35.14;100941.63;6275945;22;20437;-72
2022/12/04 09:07:24;;;;;;;31.03;17.17;;;;;;;42.48;35.31;100946.03;6247666;22;20413;-77
2022/12/04 09:09:50;;;;;;;24.23;18.17;;;;;;;42.28;34.83;100950.38;6247746;22;20409;-69
2022/12/04 09:12:16;;;;;;;32.63;18.63;;;;;;;42.55;34.87;100951.75;6248536;22;20381;-70
2022/12/04 09:14:42;;;;;;;26.60;19.90;;;;;;;42.54;34.50;100941.94;6249325;22;20177;-71
2022/12/04 09:17:08;;;;;;;23.80;17.80;;;;;;;42.57;34.63;100941.28;6221788;22;20518;-70
2022/12/04 09:19:35;;;;;;;23.93;16.57;;;;;;;42.81;35.16;100946.84;6247311;22;20853;-71
2022/12/04 09:22:02;;;;;;;23.97;15.57;;;;;;;42.87;35.07;100950.13;6247400;22;20420;-71
2022/12/04 09:24:29;;;;;;;23.73;17.93;;;;;;;42.53;34.54;100943.88;6246848;22;20393;-69
2022/12/04 09:26:55;;;;;;;29.90;20.27;;;;;;;42.66;34.67;100942.00;6247066;22;20507;-71
2022/12/04 09:29:21;;;;;;;41.97;21.87;;;;;;;42.42;34.80;100944.63;6247056;22;20389;-79
2022/12/04 09:31:47;;;;;;;31.17;19.57;;;;;;;42.18;35.03;100939.91;6246924;22;20382;-73
2022/12/04 09:34:13;;;;;;;24.93;17.93;;;;;;;42.44;34.88;100932.28;6247166;22;20389;-71
2022/12/04 09:36:39;;;;;;;26.67;17.10;;;;;;;42.22;35.29;100941.63;6247101;22;20146;-71
2022/12/04 09:39:05;;;;;;;25.37;18.13;;;;;;;42.38;34.93;100942.59;6246904;22;20515;-70
2022/12/04 09:42:19;;;;;;;26.43;16.80;;;;;;;42.56;34.70;100937.75;6247631;22;20432;-72
2022/12/04 09:44:52;;;;;;;20.60;16.70;;;;;;;42.29;34.72;100941.06;6247898;22;20413;-70
2022/12/04 09:47:37;;;;;;;23.73;16.70;;;;;;;42.20;35.00;100940.38;6249491;22;20373;-79
2022/12/04 09:50:11;;;;;;;24.50;18.83;;;;;;;42.55;34.54;100938.91;6275106;22;20402;-72
2022/12/04 09:52:56;;;;;;;29.50;20.20;;;;;;;42.70;34.60;100931.22;6248432;22;20416;-75
2022/12/04 09:55:28;;;;;;;25.43;17.07;;;;;;;42.80;33.99;100939.00;6276299;22;20372;-71
2022/12/04 09:57:58;;;;;;;23.33;16.33;;;;;;;42.69;34.08;100930.44;6246922;22;20411;-75
2022/12/04 10:00:26;;;;;;;23.23;16.23;;;;;;;42.55;34.62;100927.19;6250645;22;20776;-78
2022/12/04 10:03:00;;;;;;;16.70;14.30;;;;;;;42.85;34.17;100927.88;6250710;22;20389;-75
2022/12/04 10:05:35;;;;;;;17.57;14.43;;;;;;;42.68;34.25;100933.50;6250501;22;20427;-73
2022/12/04 10:08:20;;;;;;;29.50;17.70;;;;;;;42.81;34.07;100926.94;6250439;22;20377;-73
2022/12/04 10:11:05;;;;;;;22.40;15.00;;;;;;;42.87;33.89;100933.78;6250578;22;20461;-72
2022/12/04 10:13:59;;;;;;;21.83;16.20;;;;;;;42.57;34.19;100933.94;6250565;22;20392;-74
2022/12/04 10:16:43;;;;;;;24.40;14.87;;;;;;;42.83;33.98;100930.91;6249892;22;20777;-76
2022/12/04 10:19:24;;;;;;;22.50;15.10;;;;;;;42.65;33.95;100924.06;6250173;22;20497;-73
2022/12/04 10:22:15;;;;;;;22.90;15.00;;;;;;;42.81;33.66;100927.72;6250447;22;20726;-71
2022/12/04 10:24:47;;;;;;;20.53;14.40;;;;;;;42.85;34.19;100930.59;6250451;22;20404;-76
2022/12/04 10:27:31;;;;;;;22.53;15.23;;;;;;;42.93;34.81;100929.69;6249146;22;20765;-77
2022/12/04 10:30:14;;;;;;;20.97;14.07;;;;;;;43.04;34.53;100921.88;6250294;22;20412;-77
2022/12/04 10:32:44;;;;;;;29.70;15.80;;;;;;;42.92;34.15;100919.91;6250240;22;20435;-74
2022/12/04 10:35:28;;;;;;;35.77;14.73;;;;;;;42.88;34.52;100917.06;6250045;22;20378;-73
2022/12/04 10:38:03;;;;;;;23.23;16.20;;;;;;;42.93;34.23;100905.91;6250420;22;20881;-73
2022/12/04 10:40:45;;;;;;;18.93;13.73;;;;;;;42.97;34.45;100913.41;6277248;22;20345;-73
2022/12/04 10:43:42;;;;;;;22.20;14.83;;;;;;;42.58;34.58;100910.19;6277987;22;20349;-71
2022/12/04 10:46:18;;;;;;;26.53;15.30;;;;;;;43.05;34.25;100905.16;6240981;22;20421;-74
2022/12/04 10:48:48;;;;;;;20.20;14.90;;;;;;;43.14;34.00;100900.38;6277125;22;20353;-74
2022/12/04 10:51:18;;;;;;;18.40;14.10;;;;;;;43.16;34.00;100894.59;6277766;22;20382;-74
2022/12/04 10:53:48;;;;;;;20.37;13.07;;;;;;;42.60;34.47;100894.25;6277180;22;20358;-74
2022/12/04 10:56:18;;;;;;;26.93;15.57;;;;;;;42.86;34.09;100889.31;6249450;22;20405;-74
2022/12/04 10:58:59;;;;;;;23.10;14.90;;;;;;;42.82;34.37;100887.59;6247935;22;20424;-74
2022/12/04 11:01:27;;;;;;;19.80;13.17;;;;;;;42.92;34.37;100881.69;6249269;22;20408;-73
2022/12/04 11:04:04;;;;;;;20.13;13.87;;;;;;;42.96;34.29;100882.59;6249970;22;20381;-74
2022/12/04 11:06:31;;;;;;;28.90;14.80;;;;;;;42.64;34.30;100876.09;6250056;22;20420;-74
2022/12/04 11:08:58;;;;;;;18.80;14.70;;;;;;;42.82;34.49;100871.22;6250082;22;20830;-74
2022/12/04 11:11:30;;;;;;;26.83;15.53;;;;;;;43.01;33.72;100868.75;6249584;22;20380;-73
2022/12/04 11:14:22;;;;;;;25.57;14.30;;;;;;;42.80;33.57;100866.13;6250074;22;20407;-73
2022/12/04 11:16:59;;;;;;;24.40;14.87;;;;;;;42.68;34.14;100865.31;6249704;22;20425;-72
2022/12/04 11:19:28;;;;;;;17.43;14.93;;;;;;;42.87;34.30;100857.38;6249618;22;20780;-72
2022/12/04 11:21:58;;;;;;;17.67;14.60;;;;;;;42.91;33.95;100853.63;6277554;22;20357;-73
2022/12/04 11:24:35;;;;;;;19.43;14.47;;;;;;;42.96;34.22;100851.78;6277466;22;20358;-73
2022/12/04 11:27:04;;;;;;;23.20;14.23;;;;;;;43.13;33.69;100854.31;6249585;22;20429;-73
2022/12/04 11:29:44;;;;;;;21.97;14.83;;;;;;;43.12;34.19;100841.81;6249839;22;20850;-74
2022/12/04 11:32:30;;;;;;;21.50;14.53;;;;;;;42.83;33.61;100837.34;6249823;22;20463;-74
2022/12/04 11:35:13;;;;;;;24.43;16.53;;;;;;;42.88;34.22;100831.66;6277360;22;20864;-73
2022/12/04 11:37:39;;;;;;;23.20;14.43;;;;;;;42.61;34.29;100828.47;6249744;22;20404;-73
2022/12/04 11:40:16;;;;;;;21.43;14.40;;;;;;;42.54;33.89;100828.22;6249773;22;20457;-73
2022/12/04 11:42:42;;;;;;;27.47;14.47;;;;;;;43.01;33.53;100825.09;6249654;22;20416;-73